createdAt,value
2023-06-03T00:01:43.156Z,16.15
2023-06-03T00:04:16.690Z,16.11
2023-06-03T00:06:38.112Z,16.03
2023-06-03T00:08:57.811Z,16.04
2023-06-03T00:11:21.411Z,16.09
2023-06-03T00:13:45.564Z,16.17
2023-06-03T00:16:04.437Z,16.26
2023-06-03T00:18:20.654Z,16.24
2023-06-03T00:20:42.848Z,16.29
2023-06-03T00:23:00.867Z,16.32
2023-06-03T00:25:21.875Z,16.36
2023-06-03T00:27:51.483Z,16.42
2023-06-03T00:30:15.816Z,16.50
2023-06-03T00:32:39.651Z,16.51
2023-06-03T00:35:03.767Z,16.46
2023-06-03T00:37:28.209Z,16.43
2023-06-03T00:39:50.821Z,16.41
2023-06-03T00:42:08.172Z,16.42
2023-06-03T00:44:25.309Z,16.38
2023-06-03T00:46:42.638Z,16.35
2023-06-03T00:49:13.781Z,16.35
2023-06-03T00:51:38.094Z,16.28
2023-06-03T00:54:03.840Z,16.28
2023-06-03T00:56:26.010Z,16.29
2023-06-03T00:58:42.837Z,16.26
2023-06-03T01:01:14.902Z,16.25
2023-06-03T01:03:37.279Z,16.22
2023-06-03T01:06:16.804Z,16.19
2023-06-03T01:08:46.257Z,16.08
2023-06-03T01:11:10.066Z,16.08
2023-06-03T01:13:44.397Z,16.03
2023-06-03T01:16:15.709Z,15.95
2023-06-03T01:18:47.671Z,15.84
2023-06-03T01:21:16.238Z,15.86
2023-06-03T01:23:37.511Z,15.85
2023-06-03T01:26:02.818Z,15.88
2023-06-03T01:28:26.153Z,15.90
2023-06-03T01:30:56.687Z,15.94
2023-06-03T01:33:28.814Z,15.96
2023-06-03T01:35:52.742Z,15.95
2023-06-03T01:38:24.582Z,15.94
2023-06-03T01:40:48.691Z,15.95
2023-06-03T01:43:13.236Z,15.93
2023-06-03T01:45:43.572Z,15.94
2023-06-03T01:48:05.683Z,15.95
2023-06-03T01:50:22.686Z,15.93
2023-06-03T01:52:52.175Z,15.92
2023-06-03T01:55:14.969Z,15.92
2023-06-03T01:57:44.056Z,15.89
2023-06-03T02:00:08.775Z,15.86
2023-06-03T02:02:25.400Z,15.85
2023-06-03T02:04:38.881Z,15.87
2023-06-03T02:07:10.495Z,15.88
2023-06-03T02:09:32.292Z,15.86
2023-06-03T02:11:49.703Z,15.84
2023-06-03T02:14:06.285Z,15.89
2023-06-03T02:16:22.758Z,15.93
2023-06-03T02:18:46.117Z,15.86
2023-06-03T02:21:14.165Z,15.84
2023-06-03T02:23:35.535Z,15.80
2023-06-03T02:25:53.067Z,15.78
2023-06-03T02:28:10.382Z,15.76
2023-06-03T02:30:27.795Z,15.75
2023-06-03T02:32:42.156Z,15.71
2023-06-03T02:35:04.131Z,15.66
2023-06-03T02:37:30.249Z,15.64
2023-06-03T02:39:49.847Z,15.60
2023-06-03T02:42:21.075Z,15.57
2023-06-03T02:44:41.481Z,15.49
2023-06-03T02:47:15.705Z,15.40
2023-06-03T02:49:39.916Z,15.39
2023-06-03T02:52:04.366Z,15.39
2023-06-03T02:54:33.604Z,15.34
2023-06-03T02:56:57.727Z,15.32
2023-06-03T02:59:22.849Z,15.25
2023-06-03T03:01:53.731Z,15.17
2023-06-03T03:04:25.706Z,15.12
2023-06-03T03:06:56.615Z,15.10
2023-06-03T03:09:28.278Z,15.09
2023-06-03T03:11:52.501Z,15.05
2023-06-03T03:14:07.668Z,14.98
2023-06-03T03:16:20.644Z,14.94
2023-06-03T03:18:33.408Z,14.85
2023-06-03T03:20:45.033Z,14.78
2023-06-03T03:22:57.891Z,14.73
2023-06-03T03:25:10.164Z,14.71
2023-06-03T03:27:26.447Z,14.70
2023-06-03T03:29:41.364Z,14.71
2023-06-03T03:31:54.523Z,14.73
2023-06-03T03:34:07.582Z,14.70
2023-06-03T03:36:22.816Z,14.68
2023-06-03T03:38:37.471Z,14.70
2023-06-03T03:40:48.754Z,14.69
2023-06-03T03:43:01.146Z,14.67
2023-06-03T03:45:20.191Z,14.65
2023-06-03T03:47:35.270Z,14.62
2023-06-03T03:49:47.104Z,14.56
2023-06-03T03:51:59.936Z,14.47
2023-06-03T03:54:12.162Z,14.37
2023-06-03T03:56:25.403Z,14.32
2023-06-03T03:58:47.243Z,14.25
2023-06-03T04:01:06.928Z,14.20
2023-06-03T04:03:20.454Z,14.17
2023-06-03T04:05:32.297Z,14.15
2023-06-03T04:07:48.910Z,14.12
2023-06-03T04:10:03.672Z,14.06
2023-06-03T04:12:29.628Z,14.00
2023-06-03T04:14:52.607Z,13.90
2023-06-03T04:17:11.869Z,13.82
2023-06-03T04:19:33.335Z,13.74
2023-06-03T04:21:53.875Z,13.65
2023-06-03T04:24:08.614Z,13.57
2023-06-03T04:26:23.441Z,13.49
2023-06-03T04:28:42.063Z,13.39
2023-06-03T04:30:54.500Z,13.30
2023-06-03T04:33:14.459Z,13.21
2023-06-03T04:35:29.951Z,13.13
2023-06-03T04:37:41.681Z,13.05
2023-06-03T04:39:54.829Z,12.96
2023-06-03T04:42:10.705Z,12.88
2023-06-03T04:44:23.578Z,12.80
2023-06-03T04:46:34.895Z,12.73
2023-06-03T04:48:47.930Z,12.65
2023-06-03T04:50:59.850Z,12.58
2023-06-03T04:53:12.027Z,12.51
2023-06-03T04:55:24.232Z,12.45
2023-06-03T04:57:35.365Z,12.39
2023-06-03T04:59:47.092Z,12.33
2023-06-03T05:02:03.562Z,12.26
2023-06-03T05:04:22.440Z,12.20
2023-06-03T05:06:38.860Z,12.14
2023-06-03T05:08:51.866Z,12.08
2023-06-03T05:11:08.430Z,12.03
2023-06-03T05:13:20.868Z,11.97
2023-06-03T05:15:32.153Z,11.91
2023-06-03T05:17:44.828Z,11.85
2023-06-03T05:19:57.224Z,11.79
2023-06-03T05:22:09.301Z,11.74
2023-06-03T05:24:21.111Z,11.70
2023-06-03T05:26:33.710Z,11.65
2023-06-03T05:28:46.129Z,11.61
2023-06-03T05:30:57.194Z,11.57
2023-06-03T05:33:09.404Z,11.50
2023-06-03T05:35:26.322Z,11.44
2023-06-03T05:37:41.131Z,11.40
2023-06-03T05:39:56.381Z,11.36
2023-06-03T05:42:08.572Z,11.29
2023-06-03T05:44:20.490Z,11.24
2023-06-03T05:46:32.986Z,11.19
2023-06-03T05:48:45.479Z,11.14
2023-06-03T05:50:57.731Z,11.10
2023-06-03T05:53:12.431Z,11.04
2023-06-03T05:55:24.879Z,10.99
2023-06-03T05:57:38.373Z,10.94
2023-06-03T05:59:51.632Z,10.90
2023-06-03T06:02:03.377Z,10.85
2023-06-03T06:04:14.574Z,10.80
2023-06-03T06:06:27.731Z,10.76
2023-06-03T06:08:47.122Z,10.72
2023-06-03T06:11:18.120Z,10.69
2023-06-03T06:13:36.926Z,10.63
2023-06-03T06:16:06.439Z,10.59
2023-06-03T06:18:38.899Z,10.57
2023-06-03T06:20:55.238Z,10.54
2023-06-03T06:23:19.100Z,10.53
2023-06-03T06:25:42.460Z,10.49
2023-06-03T06:28:13.478Z,10.46
2023-06-03T06:30:37.609Z,10.41
2023-06-03T06:33:08.187Z,10.39
2023-06-03T06:35:31.715Z,10.37
2023-06-03T06:37:51.889Z,10.33
2023-06-03T06:40:34.823Z,10.30
2023-06-03T06:43:05.951Z,10.25
2023-06-03T06:45:43.387Z,10.23
2023-06-03T06:48:12.613Z,10.22
2023-06-03T06:50:41.888Z,10.19
2023-06-03T06:53:12.880Z,10.16
2023-06-03T06:55:50.117Z,10.12
2023-06-03T06:58:13.981Z,10.10
2023-06-03T07:00:45.162Z,10.07
2023-06-03T07:03:06.869Z,10.05
2023-06-03T07:05:25.332Z,10.02
2023-06-03T07:07:50.699Z,9.99
2023-06-03T07:10:25.787Z,9.96
2023-06-03T07:12:58.355Z,9.91
2023-06-03T07:15:30.709Z,9.87
2023-06-03T07:18:02.165Z,9.83
2023-06-03T07:20:35.263Z,9.80
2023-06-03T07:23:06.491Z,9.79
2023-06-03T07:25:38.771Z,9.78
2023-06-03T07:28:12.581Z,9.76
2023-06-03T07:30:43.458Z,9.75
2023-06-03T07:33:16.528Z,9.73
2023-06-03T07:35:47.517Z,9.71
2023-06-03T07:38:38.548Z,9.68
2023-06-03T07:40:58.934Z,9.65
2023-06-03T07:43:30.015Z,9.62
2023-06-03T07:45:53.974Z,9.60
2023-06-03T07:48:24.469Z,9.58
2023-06-03T07:50:54.906Z,9.57
2023-06-03T07:53:26.995Z,9.56
2023-06-03T07:55:58.247Z,9.56
2023-06-03T07:58:21.888Z,9.54
2023-06-03T08:00:54.434Z,9.52
2023-06-03T08:03:21.005Z,9.51
2023-06-03T08:05:53.140Z,9.49
2023-06-03T08:08:28.414Z,9.48
2023-06-03T08:10:59.158Z,9.46
2023-06-03T08:13:30.472Z,9.45
2023-06-03T08:16:01.766Z,9.44
2023-06-03T08:18:41.859Z,9.44
2023-06-03T08:21:11.684Z,9.42
2023-06-03T08:23:36.087Z,9.40
2023-06-03T08:26:05.454Z,9.38
2023-06-03T08:28:25.549Z,9.36
2023-06-03T08:30:42.357Z,9.35
2023-06-03T08:33:14.010Z,9.34
2023-06-03T08:35:28.915Z,9.34
2023-06-03T08:38:00.173Z,9.33
2023-06-03T08:40:17.969Z,9.30
2023-06-03T08:42:49.186Z,9.28
2023-06-03T08:45:10.076Z,9.27
2023-06-03T08:47:40.141Z,9.26
2023-06-03T08:50:07.089Z,9.26
2023-06-03T08:52:34.932Z,9.27
2023-06-03T08:55:00.757Z,9.26
2023-06-03T08:57:25.039Z,9.26
2023-06-03T08:59:57.661Z,9.25
2023-06-03T09:02:29.936Z,9.23
2023-06-03T09:04:57.537Z,9.20
2023-06-03T09:07:19.071Z,9.20
2023-06-03T09:09:48.156Z,9.19
2023-06-03T09:12:13.185Z,9.17
2023-06-03T09:14:37.879Z,9.16
2023-06-03T09:17:03.150Z,9.16
2023-06-03T09:19:30.494Z,9.15
2023-06-03T09:21:47.711Z,9.14
2023-06-03T09:24:18.760Z,9.12
2023-06-03T09:26:42.820Z,9.10
2023-06-03T09:29:03.670Z,9.07
2023-06-03T09:31:33.414Z,9.05
2023-06-03T09:34:04.512Z,9.03
2023-06-03T09:36:47.316Z,9.01
2023-06-03T09:39:13.118Z,8.98
2023-06-03T09:41:28.758Z,8.96
2023-06-03T09:44:12.651Z,8.92
2023-06-03T09:46:44.720Z,8.88
2023-06-03T09:49:28.214Z,8.86
2023-06-03T09:52:11.946Z,8.83
2023-06-03T09:54:31.635Z,8.83
2023-06-03T09:56:53.458Z,8.81
2023-06-03T09:59:25.976Z,8.80
2023-06-03T10:01:56.364Z,8.78
2023-06-03T10:04:15.247Z,8.78
2023-06-03T10:06:37.817Z,8.78
2023-06-03T10:09:21.638Z,8.76
2023-06-03T10:11:52.626Z,8.75
2023-06-03T10:14:11.118Z,8.73
2023-06-03T10:16:25.380Z,8.70
2023-06-03T10:18:54.787Z,8.68
2023-06-03T10:21:21.167Z,8.65
2023-06-03T10:23:45.902Z,8.62
2023-06-03T10:26:18.604Z,8.61
2023-06-03T10:28:42.862Z,8.60
2023-06-03T10:31:15.227Z,8.59
2023-06-03T10:33:34.569Z,8.58
2023-06-03T10:36:06.554Z,8.57
2023-06-03T10:38:29.930Z,8.57
2023-06-03T10:40:54.573Z,8.56
2023-06-03T10:43:23.031Z,8.55
2023-06-03T10:45:55.309Z,8.53
2023-06-03T10:48:17.299Z,8.52
2023-06-03T10:50:57.377Z,8.51
2023-06-03T10:53:32.377Z,8.52
2023-06-03T10:56:06.518Z,8.54
2023-06-03T10:58:37.338Z,8.54
2023-06-03T11:01:00.809Z,8.54
2023-06-03T11:03:20.350Z,8.56
2023-06-03T11:05:38.190Z,8.57
2023-06-03T11:08:03.032Z,8.57
2023-06-03T11:10:43.390Z,8.57
2023-06-03T11:13:17.333Z,8.57
2023-06-03T11:15:49.450Z,8.56
2023-06-03T11:18:21.327Z,8.54
2023-06-03T11:20:46.610Z,8.52
2023-06-03T11:23:06.109Z,8.53
2023-06-03T11:25:40.789Z,8.54
2023-06-03T11:28:24.270Z,8.55
2023-06-03T11:30:59.686Z,8.57
2023-06-03T11:33:16.349Z,8.59
2023-06-03T11:35:47.038Z,8.60
2023-06-03T11:38:07.011Z,8.61
2023-06-03T11:40:49.298Z,8.61
2023-06-03T11:43:16.825Z,8.61
2023-06-03T11:45:34.524Z,8.59
2023-06-03T11:48:08.070Z,8.58
2023-06-03T11:50:49.157Z,8.56
2023-06-03T11:53:13.899Z,8.55
2023-06-03T11:55:45.438Z,8.55
2023-06-03T11:58:16.740Z,8.53
2023-06-03T12:00:47.903Z,8.52
2023-06-03T12:03:20.279Z,8.51
2023-06-03T12:05:35.579Z,8.50
2023-06-03T12:08:07.824Z,8.47
2023-06-03T12:10:21.934Z,8.45
2023-06-03T12:12:52.707Z,8.44
2023-06-03T12:15:13.696Z,8.42
2023-06-03T12:17:44.274Z,8.41
2023-06-03T12:20:05.923Z,8.41
2023-06-03T12:22:36.553Z,8.40
2023-06-03T12:25:00.499Z,8.40
2023-06-03T12:27:26.572Z,8.40
2023-06-03T12:29:59.154Z,8.40
2023-06-03T12:32:19.574Z,8.40
2023-06-03T12:34:52.550Z,8.41
2023-06-03T12:37:40.872Z,8.43
2023-06-03T12:40:06.692Z,8.45
2023-06-03T12:42:38.098Z,8.47
2023-06-03T12:44:58.699Z,8.49
2023-06-03T12:47:30.781Z,8.51
2023-06-03T12:50:07.010Z,8.54
2023-06-03T12:52:39.463Z,8.59
2023-06-03T12:55:04.232Z,8.62
2023-06-03T12:57:24.031Z,8.64
2023-06-03T13:00:08.990Z,8.64
2023-06-03T13:02:35.093Z,8.66
2023-06-03T13:04:59.958Z,8.68
2023-06-03T13:07:25.931Z,8.68
2023-06-03T13:09:49.019Z,8.67
2023-06-03T13:12:15.676Z,8.65
2023-06-03T13:14:41.156Z,8.64
2023-06-03T13:17:12.385Z,8.63
2023-06-03T13:19:39.380Z,8.62
2023-06-03T13:22:12.764Z,8.62
2023-06-03T13:24:44.853Z,8.60
2023-06-03T13:27:09.305Z,8.61
2023-06-03T13:29:40.615Z,8.63
2023-06-03T13:32:05.700Z,8.66
2023-06-03T13:34:24.136Z,8.68
2023-06-03T13:36:50.530Z,8.70
2023-06-03T13:39:15.255Z,8.76
2023-06-03T13:41:41.576Z,8.82
2023-06-03T13:44:01.575Z,8.85
2023-06-03T13:46:33.334Z,8.86
2023-06-03T13:48:53.376Z,8.88
2023-06-03T13:51:16.797Z,8.90
2023-06-03T13:53:42.045Z,8.93
2023-06-03T13:56:13.996Z,8.96
2023-06-03T13:58:35.939Z,9.00
2023-06-03T14:01:00.464Z,9.07
2023-06-03T14:03:32.214Z,9.18
2023-06-03T14:06:02.904Z,9.38
2023-06-03T14:08:21.618Z,9.58
2023-06-03T14:10:52.944Z,9.81
2023-06-03T14:13:15.685Z,10.00
2023-06-03T14:15:38.443Z,10.19
2023-06-03T14:17:58.922Z,10.41
2023-06-03T14:20:24.028Z,10.63
2023-06-03T14:22:47.624Z,10.84
2023-06-03T14:25:19.287Z,11.05
2023-06-03T14:27:48.996Z,11.25
2023-06-03T14:30:19.651Z,11.47
2023-06-03T14:32:42.674Z,11.65
2023-06-03T14:35:09.979Z,11.85
2023-06-03T14:37:41.308Z,12.05
2023-06-03T14:40:13.942Z,12.23
2023-06-03T14:42:38.934Z,12.40
2023-06-03T14:45:03.380Z,12.54
2023-06-03T14:47:22.849Z,12.72
2023-06-03T14:49:42.784Z,12.92
2023-06-03T14:52:00.074Z,13.09
2023-06-03T14:54:27.811Z,13.25
2023-06-03T14:56:41.914Z,13.37
2023-06-03T14:59:00.070Z,13.51
2023-06-03T15:01:28.657Z,13.64
2023-06-03T15:03:51.939Z,13.72
2023-06-03T15:06:21.269Z,13.81
2023-06-03T15:08:56.410Z,13.92
2023-06-03T15:11:25.050Z,14.00
2023-06-03T15:13:49.899Z,14.08
2023-06-03T15:16:21.395Z,14.19
2023-06-03T15:18:53.870Z,14.27
2023-06-03T15:21:16.499Z,14.35
2023-06-03T15:23:36.618Z,14.36
2023-06-03T15:26:02.409Z,14.42
2023-06-03T15:28:21.307Z,14.44
2023-06-03T15:30:52.360Z,14.48
2023-06-03T15:33:16.402Z,14.55
2023-06-03T15:35:39.339Z,14.62
2023-06-03T15:38:11.278Z,14.71
2023-06-03T15:40:26.028Z,14.78
2023-06-03T15:42:48.801Z,14.94
2023-06-03T15:45:13.919Z,15.03
2023-06-03T15:47:30.813Z,15.13
2023-06-03T15:49:53.570Z,15.21
2023-06-03T15:52:16.010Z,15.37
2023-06-03T15:54:36.440Z,15.52
2023-06-03T15:57:00.675Z,15.67
2023-06-03T15:59:24.544Z,15.82
2023-06-03T16:01:40.716Z,15.99
2023-06-03T16:03:53.014Z,16.12
2023-06-03T16:06:15.965Z,16.20
2023-06-03T16:08:37.023Z,16.29
2023-06-03T16:10:57.822Z,16.35
2023-06-03T16:13:19.829Z,16.34
2023-06-03T16:15:50.230Z,16.37
2023-06-03T16:18:12.392Z,16.36
2023-06-03T16:20:29.803Z,16.26
2023-06-03T16:22:53.415Z,16.09
2023-06-03T16:25:12.958Z,15.98
2023-06-03T16:27:26.792Z,15.84
2023-06-03T16:29:44.315Z,15.77
2023-06-03T16:32:02.989Z,15.67
2023-06-03T16:34:23.408Z,15.59
2023-06-03T16:36:43.379Z,15.52
2023-06-03T16:39:07.182Z,15.48
2023-06-03T16:41:38.771Z,15.48
2023-06-03T16:43:58.856Z,15.47
2023-06-03T16:46:16.030Z,15.48
2023-06-03T16:48:47.649Z,15.54
2023-06-03T16:51:02.135Z,15.62
2023-06-03T16:53:22.285Z,15.64
2023-06-03T16:55:53.541Z,15.64
2023-06-03T16:58:21.832Z,15.67
2023-06-03T17:00:52.989Z,15.70
2023-06-03T17:03:25.795Z,15.76
2023-06-03T17:05:57.904Z,15.85
2023-06-03T17:08:16.613Z,15.87
2023-06-03T17:10:35.944Z,15.87
2023-06-03T17:12:53.546Z,15.91
2023-06-03T17:15:17.726Z,15.96
2023-06-03T17:17:41.252Z,16.02
2023-06-03T17:20:03.953Z,16.08
2023-06-03T17:22:21.733Z,16.06
2023-06-03T17:24:44.426Z,16.06
2023-06-03T17:27:01.079Z,16.07
2023-06-03T17:29:25.021Z,16.13
2023-06-03T17:31:51.050Z,16.19
2023-06-03T17:34:08.819Z,16.18
2023-06-03T17:36:22.813Z,16.19
2023-06-03T17:38:44.689Z,16.22
2023-06-03T17:41:08.353Z,16.28
2023-06-03T17:43:23.061Z,16.25
2023-06-03T17:45:44.067Z,16.25
2023-06-03T17:48:15.469Z,16.23
2023-06-03T17:50:44.776Z,16.26
2023-06-03T17:53:04.693Z,16.29
2023-06-03T17:55:25.381Z,16.33
2023-06-03T17:57:46.545Z,16.38
2023-06-03T18:00:15.517Z,16.40
2023-06-03T18:02:27.456Z,16.38
2023-06-03T18:04:51.421Z,16.40
2023-06-03T18:07:10.878Z,16.39
2023-06-03T18:09:29.668Z,16.41
2023-06-03T18:11:52.452Z,16.46
2023-06-03T18:14:12.831Z,16.47
2023-06-03T18:16:37.397Z,16.46
2023-06-03T18:19:01.216Z,16.48
2023-06-03T18:21:15.040Z,16.53
2023-06-03T18:23:33.343Z,16.53
2023-06-03T18:26:10.515Z,16.52
2023-06-03T18:28:50.970Z,16.55
2023-06-03T18:31:21.490Z,16.61
2023-06-03T18:33:37.748Z,16.63
2023-06-03T18:36:09.218Z,16.62
2023-06-03T18:38:39.629Z,16.56
2023-06-03T18:40:58.016Z,16.56
2023-06-03T18:43:29.970Z,16.56
2023-06-03T18:46:02.112Z,16.55
2023-06-03T18:48:25.551Z,16.60
2023-06-03T18:50:48.189Z,16.67
2023-06-03T18:53:03.590Z,16.72
2023-06-03T18:55:25.373Z,16.77
2023-06-03T18:57:49.857Z,16.80
2023-06-03T19:00:08.478Z,16.80
2023-06-03T19:02:25.454Z,16.87
2023-06-03T19:04:48.010Z,16.94
2023-06-03T19:07:04.124Z,16.98
2023-06-03T19:09:32.785Z,17.02
2023-06-03T19:11:50.312Z,17.11
2023-06-03T19:14:13.752Z,17.19
2023-06-03T19:16:48.686Z,17.19
2023-06-03T19:19:11.093Z,17.17
2023-06-03T19:21:41.986Z,17.12
2023-06-03T19:23:59.051Z,17.13
2023-06-03T19:26:13.306Z,17.17
2023-06-03T19:28:34.085Z,17.16
2023-06-03T19:31:05.541Z,17.09
2023-06-03T19:33:20.186Z,17.08
2023-06-03T19:35:44.816Z,17.11
2023-06-03T19:38:07.597Z,17.13
2023-06-03T19:40:30.135Z,17.11
2023-06-03T19:42:51.545Z,17.09
2023-06-03T19:45:15.930Z,17.09
2023-06-03T19:47:31.439Z,17.15
2023-06-03T19:49:45.383Z,17.17
2023-06-03T19:52:15.156Z,17.20
2023-06-03T19:54:44.147Z,17.26
2023-06-03T19:57:15.429Z,17.23
2023-06-03T19:59:48.089Z,17.15
2023-06-03T20:02:12.641Z,17.09
2023-06-03T20:04:31.862Z,17.10
2023-06-03T20:07:03.822Z,17.10
2023-06-03T20:09:34.625Z,17.06
2023-06-03T20:11:59.229Z,17.04
2023-06-03T20:14:29.962Z,16.98
2023-06-03T20:16:52.712Z,17.04
2023-06-03T20:19:14.376Z,17.05
2023-06-03T20:21:46.293Z,17.03
2023-06-03T20:24:07.901Z,17.06
2023-06-03T20:26:39.446Z,17.11
2023-06-03T20:29:11.736Z,17.14
2023-06-03T20:31:29.086Z,17.17
2023-06-03T20:33:54.367Z,17.20
2023-06-03T20:36:14.344Z,17.22
2023-06-03T20:38:37.738Z,17.23
2023-06-03T20:41:00.824Z,17.25
2023-06-03T20:43:32.605Z,17.25
2023-06-03T20:45:55.396Z,17.30
2023-06-03T20:48:19.916Z,17.33
2023-06-03T20:50:50.340Z,17.35
2023-06-03T20:53:22.114Z,17.34
2023-06-03T20:55:54.216Z,17.30
2023-06-03T20:58:25.212Z,17.25
2023-06-03T21:00:56.205Z,17.19
2023-06-03T21:03:27.549Z,17.19
2023-06-03T21:05:59.269Z,17.25
2023-06-03T21:08:30.984Z,17.29
2023-06-03T21:10:56.695Z,17.32
2023-06-03T21:13:22.915Z,17.33
2023-06-03T21:15:40.651Z,17.44
2023-06-03T21:17:58.803Z,17.54
2023-06-03T21:20:30.808Z,17.61
2023-06-03T21:22:46.815Z,17.64
2023-06-03T21:25:17.525Z,17.67
2023-06-03T21:27:36.895Z,17.69
2023-06-03T21:30:00.686Z,17.73
2023-06-03T21:32:20.468Z,17.87
2023-06-03T21:34:51.552Z,17.87
2023-06-03T21:37:22.428Z,17.80
2023-06-03T21:39:53.239Z,17.78
2023-06-03T21:42:23.758Z,17.81
2023-06-03T21:44:54.358Z,17.90
2023-06-03T21:47:25.507Z,17.98
2023-06-03T21:49:48.724Z,17.87
2023-06-03T21:52:20.155Z,17.73
2023-06-03T21:54:51.383Z,17.74
2023-06-03T21:57:12.369Z,17.81
2023-06-03T21:59:43.747Z,17.80
2023-06-03T22:02:25.831Z,17.87
2023-06-03T22:04:56.818Z,17.91
2023-06-03T22:07:27.589Z,17.89
2023-06-03T22:09:58.552Z,17.92
2023-06-03T22:12:29.217Z,18.03
2023-06-03T22:14:55.100Z,17.96
2023-06-03T22:17:13.330Z,17.93
2023-06-03T22:19:37.586Z,17.92
2023-06-03T22:22:01.649Z,17.82
2023-06-03T22:24:30.858Z,17.88
2023-06-03T22:26:54.969Z,17.87
2023-06-03T22:29:24.186Z,18.00
2023-06-03T22:31:55.353Z,18.09
2023-06-03T22:34:26.639Z,18.13
2023-06-03T22:36:59.009Z,18.10
2023-06-03T22:39:30.600Z,17.99
2023-06-03T22:42:02.186Z,17.79
2023-06-03T22:44:26.519Z,17.73
2023-06-03T22:46:57.410Z,17.63
2023-06-03T22:49:21.153Z,17.59
2023-06-03T22:51:52.395Z,17.50
2023-06-03T22:54:24.416Z,17.25
2023-06-03T22:56:44.515Z,17.05
2023-06-03T22:59:11.125Z,16.90
2023-06-03T23:01:33.978Z,16.88
2023-06-03T23:03:59.566Z,16.94
2023-06-03T23:06:18.305Z,16.96
2023-06-03T23:08:41.219Z,16.91
2023-06-03T23:11:12.334Z,16.79
2023-06-03T23:13:43.408Z,16.70
2023-06-03T23:16:14.222Z,16.65
2023-06-03T23:18:31.967Z,16.60
2023-06-03T23:20:49.247Z,16.56
2023-06-03T23:23:19.895Z,16.58
2023-06-03T23:25:52.214Z,16.52
2023-06-03T23:28:16.764Z,16.53
2023-06-03T23:30:40.165Z,16.58
2023-06-03T23:33:06.799Z,16.53
2023-06-03T23:35:38.526Z,16.52
2023-06-03T23:38:09.899Z,16.53
2023-06-03T23:40:40.762Z,16.60
2023-06-03T23:43:11.853Z,16.74
2023-06-03T23:45:42.760Z,16.69
2023-06-03T23:48:07.779Z,16.80
2023-06-03T23:50:27.057Z,16.89
2023-06-03T23:52:52.556Z,17.00
2023-06-03T23:55:23.409Z,17.10
2023-06-03T23:57:54.565Z,17.27
